createdAt,value
2019-03-23T00:01:08.093Z,106.80
2019-03-23T00:03:39.940Z,101.40
2019-03-23T00:06:11.659Z,101.23
2019-03-23T00:08:43.340Z,96.23
2019-03-23T00:11:15.195Z,90.53
2019-03-23T00:13:46.803Z,98.13
2019-03-23T00:16:18.404Z,91.97
2019-03-23T00:18:50.076Z,90.13
2019-03-23T00:21:21.674Z,106.67
2019-03-23T00:23:53.297Z,92.93
2019-03-23T00:26:24.990Z,90.77
2019-03-23T00:28:56.838Z,107.40
2019-03-23T00:31:28.576Z,101.27
2019-03-23T00:34:00.174Z,100.50
2019-03-23T00:36:41.059Z,104.47
2019-03-23T00:39:06.714Z,89.73
2019-03-23T00:41:38.548Z,103.10
2019-03-23T00:44:10.333Z,106.57
2019-03-23T00:46:41.915Z,93.67
2019-03-23T00:49:13.619Z,107.10
2019-03-23T00:51:45.336Z,88.73
2019-03-23T00:54:17.040Z,92.73
2019-03-23T00:56:48.695Z,94.10
2019-03-23T00:59:20.299Z,96.97
2019-03-23T01:01:51.914Z,101.33
2019-03-23T01:04:23.722Z,84.87
2019-03-23T01:06:55.564Z,98.70
2019-03-23T01:09:27.294Z,92.63
2019-03-23T01:11:58.890Z,86.27
2019-03-23T01:14:30.656Z,85.20
2019-03-23T01:17:02.310Z,87.10
2019-03-23T01:19:34.014Z,78.40
2019-03-23T01:22:05.807Z,102.10
2019-03-23T01:24:37.488Z,91.33
2019-03-23T01:27:09.136Z,93.10
2019-03-23T01:29:40.952Z,101.70
2019-03-23T01:32:13.706Z,97.63
2019-03-23T01:34:45.491Z,102.87
2019-03-23T01:37:17.329Z,86.73
2019-03-23T01:39:49.164Z,94.70
2019-03-23T01:42:20.784Z,109.27
2019-03-23T01:44:52.393Z,93.37
2019-03-23T01:47:24.056Z,107.13
2019-03-23T01:49:55.644Z,96.77
2019-03-23T01:52:27.410Z,91.00
2019-03-23T01:54:59.105Z,94.50
2019-03-23T01:57:30.705Z,114.47
2019-03-23T02:00:03.386Z,94.63
2019-03-23T02:02:36.182Z,98.00
2019-03-23T02:05:08.456Z,110.40
2019-03-23T02:07:40.048Z,84.47
2019-03-23T02:10:12.023Z,94.17
2019-03-23T02:12:43.611Z,91.87
2019-03-23T02:15:15.342Z,95.53
2019-03-23T02:17:47.151Z,112.93
2019-03-23T02:20:18.835Z,113.57
2019-03-23T02:22:50.424Z,101.30
2019-03-23T02:25:22.190Z,98.47
2019-03-23T02:27:53.862Z,96.00
2019-03-23T02:30:25.550Z,103.53
2019-03-23T02:32:57.206Z,88.60
2019-03-23T02:35:28.809Z,90.60
2019-03-23T02:38:00.461Z,116.70
2019-03-23T02:40:32.162Z,69.87
2019-03-23T02:43:03.848Z,252.27
2019-03-23T02:45:35.610Z,68.90
2019-03-23T02:48:07.350Z,80.37
2019-03-23T02:50:40.008Z,161.93
2019-03-23T02:53:11.642Z,300.43
2019-03-23T02:55:43.488Z,64.20
2019-03-23T02:58:15.116Z,88.20
2019-03-23T03:00:46.624Z,106.10
2019-03-23T03:03:18.261Z,72.83
2019-03-23T03:05:49.842Z,89.73
2019-03-23T03:08:21.569Z,75.87
2019-03-23T03:10:53.193Z,86.83
2019-03-23T03:13:24.836Z,131.80
2019-03-23T03:15:56.419Z,122.40
2019-03-23T03:18:28.137Z,105.93
2019-03-23T03:20:59.784Z,207.17
2019-03-23T03:23:31.453Z,86.20
2019-03-23T03:26:03.141Z,79.10
2019-03-23T03:28:35.244Z,216.40
2019-03-23T03:31:06.948Z,87.63
2019-03-23T03:33:38.550Z,84.50
2019-03-23T03:36:10.129Z,110.70
2019-03-23T03:38:41.707Z,59.00
2019-03-23T03:41:14.403Z,71.83
2019-03-23T03:43:45.995Z,70.20
2019-03-23T03:46:17.580Z,128.47
2019-03-23T03:48:49.296Z,272.60
2019-03-23T03:51:20.888Z,95.30
2019-03-23T03:53:52.544Z,169.80
2019-03-23T03:56:24.189Z,99.37
2019-03-23T03:58:55.836Z,118.87
2019-03-23T04:01:27.497Z,99.50
2019-03-23T04:03:59.199Z,180.43
2019-03-23T04:06:30.743Z,103.87
2019-03-23T04:09:02.417Z,107.23
2019-03-23T04:11:35.040Z,89.00
2019-03-23T04:14:06.726Z,80.37
2019-03-23T04:16:38.364Z,57.27
2019-03-23T04:19:09.929Z,83.37
2019-03-23T04:21:41.533Z,50.90
2019-03-23T04:24:13.093Z,65.60
2019-03-23T04:26:44.704Z,70.73
2019-03-23T04:29:16.667Z,70.10
2019-03-23T04:31:48.339Z,65.33
2019-03-23T04:34:19.935Z,66.23
2019-03-23T04:36:51.584Z,54.50
2019-03-23T04:39:23.223Z,69.13
2019-03-23T04:41:54.822Z,73.83
2019-03-23T04:44:26.457Z,59.73
2019-03-23T04:46:58.042Z,55.57
2019-03-23T04:49:29.697Z,63.37
2019-03-23T04:52:01.245Z,68.60
2019-03-23T04:54:32.953Z,62.03
2019-03-23T04:57:04.529Z,56.10
2019-03-23T04:59:36.152Z,54.20
2019-03-23T05:02:07.854Z,46.33
2019-03-23T05:04:39.558Z,53.07
2019-03-23T05:07:11.227Z,48.73
2019-03-23T05:09:42.832Z,58.47
2019-03-23T05:12:14.459Z,66.30
2019-03-23T05:14:46.153Z,66.07
2019-03-23T05:17:17.746Z,68.17
2019-03-23T05:19:49.527Z,73.43
2019-03-23T05:22:21.334Z,83.60
2019-03-23T05:24:52.874Z,76.57
2019-03-23T05:27:24.504Z,83.50
2019-03-23T05:29:56.116Z,79.20
2019-03-23T05:32:27.770Z,74.20
2019-03-23T05:34:59.479Z,73.40
2019-03-23T05:37:31.112Z,73.20
2019-03-23T05:40:02.754Z,79.50
2019-03-23T05:42:34.388Z,73.47
2019-03-23T05:45:07.057Z,83.77
2019-03-23T05:47:38.673Z,84.30
2019-03-23T05:50:10.793Z,91.07
2019-03-23T05:52:42.496Z,88.43
2019-03-23T05:55:14.068Z,99.00
2019-03-23T05:57:46.711Z,110.20
2019-03-23T06:00:19.953Z,118.77
2019-03-23T06:02:51.543Z,129.07
2019-03-23T06:05:24.716Z,115.90
2019-03-23T06:07:56.477Z,143.57
2019-03-23T06:10:28.114Z,158.07
2019-03-23T06:12:59.742Z,182.90
2019-03-23T06:15:31.336Z,186.30
2019-03-23T06:18:02.968Z,195.50
2019-03-23T06:20:34.636Z,201.67
2019-03-23T06:23:06.241Z,225.43
2019-03-23T06:25:37.840Z,270.47
2019-03-23T06:28:09.489Z,296.37
2019-03-23T06:30:41.109Z,339.60
2019-03-23T06:33:12.745Z,337.43
2019-03-23T06:35:44.741Z,364.23
2019-03-23T06:38:16.500Z,408.17
2019-03-23T06:40:48.075Z,380.87
2019-03-23T06:43:19.726Z,366.60
2019-03-23T06:45:51.394Z,381.40
2019-03-23T06:48:23.340Z,365.60
2019-03-23T06:50:55.235Z,360.60
2019-03-23T06:53:26.872Z,317.50
2019-03-23T06:55:58.500Z,293.50
2019-03-23T06:58:30.155Z,270.43
2019-03-23T07:01:01.810Z,227.07
2019-03-23T07:03:33.518Z,202.70
2019-03-23T07:06:05.036Z,170.93
2019-03-23T07:08:37.816Z,155.53
2019-03-23T07:11:09.597Z,135.47
2019-03-23T07:13:41.287Z,120.20
2019-03-23T07:16:12.866Z,117.90
2019-03-23T07:18:44.584Z,111.57
2019-03-23T07:21:16.590Z,103.80
2019-03-23T07:23:48.293Z,104.13
2019-03-23T07:26:19.861Z,107.43
2019-03-23T07:28:51.503Z,103.00
2019-03-23T07:31:23.537Z,98.07
2019-03-23T07:33:55.240Z,108.97
2019-03-23T07:36:27.112Z,102.77
2019-03-23T07:38:58.805Z,96.30
2019-03-23T07:41:30.550Z,96.77
2019-03-23T07:44:02.225Z,97.87
2019-03-23T07:46:34.291Z,95.50
2019-03-23T07:49:06.278Z,93.57
2019-03-23T07:51:37.938Z,97.83
2019-03-23T07:54:09.530Z,99.50
2019-03-23T07:56:41.181Z,103.67
2019-03-23T07:59:12.860Z,90.77
2019-03-23T08:01:44.484Z,94.80
2019-03-23T08:04:16.099Z,90.87
2019-03-23T08:06:47.735Z,92.73
2019-03-23T08:09:20.645Z,84.57
2019-03-23T08:11:52.899Z,87.37
2019-03-23T08:14:24.578Z,88.17
2019-03-23T08:16:56.380Z,94.33
2019-03-23T08:19:28.207Z,82.37
2019-03-23T08:22:00.345Z,83.80
2019-03-23T08:24:32.097Z,87.67
2019-03-23T08:27:07.769Z,84.93
2019-03-23T08:29:39.724Z,83.27
2019-03-23T08:32:11.501Z,84.83
2019-03-23T08:34:43.287Z,82.40
2019-03-23T08:37:16.665Z,84.00
2019-03-23T08:39:49.650Z,83.47
2019-03-23T08:42:21.428Z,81.57
2019-03-23T08:44:53.647Z,81.30
2019-03-23T08:47:25.412Z,76.60
2019-03-23T08:49:59.560Z,80.80
2019-03-23T08:52:30.577Z,78.13
2019-03-23T08:55:02.268Z,73.90
2019-03-23T08:57:34.005Z,76.27
2019-03-23T09:00:07.704Z,74.67
2019-03-23T09:02:40.913Z,71.63
2019-03-23T09:05:13.754Z,71.27
2019-03-23T09:07:45.465Z,73.07
2019-03-23T09:10:17.115Z,69.03
2019-03-23T09:12:52.671Z,69.77
2019-03-23T09:15:25.382Z,70.13
2019-03-23T09:17:58.340Z,76.77
2019-03-23T09:20:31.558Z,79.80
2019-03-23T09:23:14.528Z,76.05
2019-03-23T09:25:47.282Z,79.10
2019-03-23T09:28:18.979Z,71.03
2019-03-23T09:30:50.551Z,72.65
2019-03-23T09:33:22.194Z,65.83
2019-03-23T09:35:54.035Z,64.42
2019-03-23T09:38:25.747Z,61.35
2019-03-23T09:40:57.461Z,67.62
2019-03-23T09:43:29.255Z,65.03
2019-03-23T09:46:01.197Z,62.17
2019-03-23T09:48:33.054Z,61.95
2019-03-23T09:51:04.953Z,60.83
2019-03-23T09:53:36.734Z,60.85
2019-03-23T09:56:08.674Z,58.13
2019-03-23T09:58:41.054Z,63.10
2019-03-23T10:01:12.951Z,62.35
2019-03-23T10:03:53.275Z,65.12
2019-03-23T10:06:27.658Z,60.78
2019-03-23T10:09:00.230Z,54.88
2019-03-23T10:11:32.489Z,56.60
2019-03-23T10:14:04.526Z,57.65
2019-03-23T10:16:36.475Z,55.83
2019-03-23T10:19:08.694Z,57.85
2019-03-23T10:21:41.080Z,50.65
2019-03-23T10:24:13.010Z,61.70
2019-03-23T10:26:45.108Z,56.65
2019-03-23T10:29:17.276Z,56.37
2019-03-23T10:31:49.175Z,55.05
2019-03-23T10:34:21.969Z,53.02
2019-03-23T10:36:53.899Z,52.53
2019-03-23T10:39:25.613Z,57.53
2019-03-23T10:41:57.532Z,50.15
2019-03-23T10:44:29.757Z,50.38
2019-03-23T10:47:01.556Z,54.63
2019-03-23T10:49:33.534Z,52.78
2019-03-23T10:52:05.627Z,50.67
2019-03-23T10:54:37.562Z,48.52
2019-03-23T10:57:09.379Z,44.20
2019-03-23T10:59:41.314Z,47.17
2019-03-23T11:02:13.219Z,46.90
2019-03-23T11:04:45.086Z,46.90
2019-03-23T11:07:18.033Z,45.67
2019-03-23T11:09:50.015Z,50.00
2019-03-23T11:12:21.851Z,45.15
2019-03-23T11:14:54.552Z,48.68
2019-03-23T11:17:27.268Z,51.20
2019-03-23T11:19:59.022Z,45.17
2019-03-23T11:22:31.222Z,52.55
2019-03-23T11:25:03.131Z,38.55
2019-03-23T11:27:35.096Z,42.67
2019-03-23T11:30:08.611Z,48.80
2019-03-23T11:32:40.871Z,46.37
2019-03-23T11:35:13.475Z,42.95
2019-03-23T11:37:46.574Z,36.42
2019-03-23T11:40:19.048Z,36.45
2019-03-23T11:42:51.507Z,33.35
2019-03-23T11:45:23.560Z,33.33
2019-03-23T11:47:55.454Z,31.95
2019-03-23T11:50:27.346Z,38.35
2019-03-23T11:52:59.344Z,28.00
2019-03-23T11:55:31.094Z,31.93
2019-03-23T11:58:03.079Z,33.53
2019-03-23T12:00:34.912Z,24.82
2019-03-23T12:03:06.757Z,25.52
2019-03-23T12:05:38.562Z,28.83
2019-03-23T12:08:10.266Z,30.00
2019-03-23T12:10:41.918Z,30.55
2019-03-23T12:13:13.961Z,28.30
2019-03-23T12:15:45.698Z,30.32
2019-03-23T12:18:17.458Z,23.87
2019-03-23T12:20:49.135Z,24.80
2019-03-23T12:23:21.057Z,20.72
2019-03-23T12:25:52.851Z,19.42
2019-03-23T12:28:24.520Z,21.73
2019-03-23T12:30:58.348Z,21.68
2019-03-23T12:33:31.108Z,22.60
2019-03-23T12:36:02.692Z,26.05
2019-03-23T12:38:34.352Z,16.57
2019-03-23T12:41:14.322Z,19.80
2019-03-23T12:43:41.501Z,16.20
2019-03-23T12:46:16.270Z,14.78
2019-03-23T12:48:47.921Z,22.65
2019-03-23T12:51:19.604Z,18.90
2019-03-23T12:53:51.315Z,13.93
2019-03-23T12:56:23.003Z,14.60
2019-03-23T12:58:54.643Z,14.28
2019-03-23T13:01:26.354Z,14.20
2019-03-23T13:03:57.982Z,16.32
2019-03-23T13:06:29.633Z,14.03
2019-03-23T13:09:01.235Z,13.65
2019-03-23T13:11:35.556Z,15.23
2019-03-23T13:14:07.926Z,16.82
2019-03-23T13:16:39.654Z,17.02
2019-03-23T13:19:11.339Z,13.45
2019-03-23T13:21:42.974Z,16.40
2019-03-23T13:24:14.683Z,14.70
2019-03-23T13:26:46.298Z,14.65
2019-03-23T13:29:18.040Z,16.62
2019-03-23T13:31:49.753Z,18.98
2019-03-23T13:34:21.369Z,14.30
2019-03-23T13:36:53.082Z,12.88
2019-03-23T13:39:24.888Z,11.45
2019-03-23T13:41:56.534Z,11.00
2019-03-23T13:44:28.224Z,11.53
2019-03-23T13:46:59.906Z,10.35
2019-03-23T13:49:32.599Z,9.88
2019-03-23T13:52:04.222Z,10.28
2019-03-23T13:54:35.840Z,11.50
2019-03-23T13:57:07.432Z,10.63
2019-03-23T13:59:39.077Z,12.47
2019-03-23T14:02:10.689Z,11.85
2019-03-23T14:04:43.366Z,9.18
2019-03-23T14:07:15.099Z,10.35
2019-03-23T14:09:47.063Z,9.48
2019-03-23T14:12:18.817Z,9.58
2019-03-23T14:14:50.543Z,9.50
2019-03-23T14:17:22.356Z,9.60
2019-03-23T14:19:54.109Z,11.73
2019-03-23T14:22:25.892Z,9.65
2019-03-23T14:24:57.673Z,8.63
2019-03-23T14:27:29.500Z,10.00
2019-03-23T14:30:02.557Z,9.43
2019-03-23T14:32:34.310Z,9.30
2019-03-23T14:35:08.363Z,8.95
2019-03-23T14:37:40.218Z,10.30
2019-03-23T14:40:12.330Z,8.63
2019-03-23T14:42:44.036Z,10.75
2019-03-23T14:45:15.953Z,9.48
2019-03-23T14:47:47.776Z,9.60
2019-03-23T14:50:19.500Z,9.73
2019-03-23T14:52:51.193Z,9.13
2019-03-23T14:55:22.814Z,9.43
2019-03-23T14:57:54.380Z,9.45
2019-03-23T15:00:33.660Z,13.50
2019-03-23T15:03:05.384Z,10.53
2019-03-23T15:05:37.031Z,11.20
2019-03-23T15:08:08.683Z,10.03
2019-03-23T15:10:40.318Z,10.05
2019-03-23T15:13:11.988Z,9.90
2019-03-23T15:15:43.624Z,10.20
2019-03-23T15:18:15.268Z,9.53
2019-03-23T15:20:46.922Z,10.63
2019-03-23T15:23:18.517Z,10.95
2019-03-23T15:25:50.146Z,10.23
2019-03-23T15:28:21.734Z,9.73
2019-03-23T15:30:53.368Z,10.60
2019-03-23T15:33:24.989Z,10.00
2019-03-23T15:35:56.674Z,9.68
2019-03-23T15:38:28.263Z,10.55
2019-03-23T15:40:59.866Z,9.53
2019-03-23T15:43:31.560Z,10.80
2019-03-23T15:46:03.279Z,10.15
2019-03-23T15:48:35.905Z,9.68
2019-03-23T15:51:07.503Z,9.58
2019-03-23T15:53:39.181Z,10.50
2019-03-23T15:56:10.878Z,13.78
2019-03-23T15:58:43.454Z,14.25
2019-03-23T16:01:15.511Z,15.25
2019-03-23T16:03:47.181Z,12.13
2019-03-23T16:06:25.219Z,15.28
2019-03-23T16:09:01.076Z,13.53
2019-03-23T16:11:34.589Z,11.95
2019-03-23T16:14:06.212Z,13.43
2019-03-23T16:16:37.882Z,10.95
2019-03-23T16:19:09.510Z,12.33
2019-03-23T16:21:41.176Z,10.82
2019-03-23T16:24:12.789Z,11.25
2019-03-23T16:26:44.455Z,11.10
2019-03-23T16:29:17.175Z,24.63
2019-03-23T16:31:48.769Z,11.65
2019-03-23T16:34:20.450Z,12.65
2019-03-23T16:36:52.205Z,10.93
2019-03-23T16:39:23.828Z,10.75
2019-03-23T16:41:55.539Z,12.10
2019-03-23T16:44:27.128Z,12.90
2019-03-23T16:46:58.860Z,24.47
2019-03-23T16:49:30.488Z,42.43
2019-03-23T16:52:02.159Z,42.23
2019-03-23T16:54:33.798Z,23.40
2019-03-23T16:57:05.396Z,26.35
2019-03-23T16:59:37.653Z,30.62
2019-03-23T17:02:09.338Z,27.75
2019-03-23T17:04:41.006Z,24.35
2019-03-23T17:07:12.710Z,33.98
2019-03-23T17:09:44.503Z,27.87
2019-03-23T17:12:16.233Z,26.68
2019-03-23T17:14:47.831Z,25.23
2019-03-23T17:17:19.515Z,22.50
2019-03-23T17:19:51.171Z,35.48
2019-03-23T17:22:23.096Z,21.67
2019-03-23T17:24:56.122Z,25.70
2019-03-23T17:27:28.901Z,20.37
2019-03-23T17:30:00.607Z,19.93
2019-03-23T17:32:32.419Z,21.07
2019-03-23T17:35:05.108Z,15.78
2019-03-23T17:37:37.279Z,19.03
2019-03-23T17:40:09.487Z,33.07
2019-03-23T17:42:41.602Z,26.30
2019-03-23T17:45:13.920Z,25.70
2019-03-23T17:47:45.695Z,26.03
2019-03-23T17:50:17.519Z,40.70
2019-03-23T17:52:49.586Z,40.27
2019-03-23T17:55:22.175Z,42.93
2019-03-23T17:57:54.190Z,34.10
2019-03-23T18:00:26.875Z,35.40
2019-03-23T18:02:58.740Z,37.90
2019-03-23T18:05:30.702Z,41.90
2019-03-23T18:08:02.697Z,41.90
2019-03-23T18:10:34.576Z,50.93
2019-03-23T18:13:16.106Z,48.17
2019-03-23T18:15:41.355Z,49.27
2019-03-23T18:18:13.112Z,51.87
2019-03-23T18:20:44.956Z,47.33
2019-03-23T18:23:16.595Z,41.83
2019-03-23T18:25:48.372Z,46.93
2019-03-23T18:28:20.135Z,44.20
2019-03-23T18:30:51.897Z,52.40
2019-03-23T18:33:24.503Z,39.33
2019-03-23T18:35:56.538Z,41.43
2019-03-23T18:38:28.586Z,37.47
2019-03-23T18:41:00.492Z,39.40
2019-03-23T18:43:33.565Z,45.53
2019-03-23T18:46:05.767Z,39.50
2019-03-23T18:48:37.721Z,37.20
2019-03-23T18:51:09.951Z,41.60
2019-03-23T18:53:42.277Z,37.73
2019-03-23T18:56:14.483Z,38.60
2019-03-23T18:58:46.797Z,33.33
2019-03-23T19:01:18.639Z,31.97
2019-03-23T19:03:50.721Z,35.43
2019-03-23T19:06:23.176Z,35.23
2019-03-23T19:08:55.640Z,43.07
2019-03-23T19:11:27.797Z,43.80
2019-03-23T19:13:59.750Z,58.30
2019-03-23T19:16:32.970Z,31.13
2019-03-23T19:19:04.943Z,29.50
2019-03-23T19:21:36.784Z,31.33
2019-03-23T19:24:08.496Z,46.53
2019-03-23T19:26:40.321Z,53.77
2019-03-23T19:29:12.167Z,61.87
2019-03-23T19:31:44.632Z,62.50
2019-03-23T19:34:16.348Z,67.50
2019-03-23T19:36:48.114Z,67.07
2019-03-23T19:39:20.402Z,71.77
2019-03-23T19:41:52.181Z,77.57
2019-03-23T19:44:26.266Z,71.67
2019-03-23T19:47:01.347Z,71.70
2019-03-23T19:49:33.652Z,76.03
2019-03-23T19:52:06.155Z,80.20
2019-03-23T19:54:38.275Z,86.17
2019-03-23T19:57:10.132Z,85.30
2019-03-23T19:59:41.886Z,91.50
2019-03-23T20:02:13.774Z,93.13
2019-03-23T20:04:45.825Z,92.53
2019-03-23T20:07:18.095Z,80.43
2019-03-23T20:09:51.213Z,67.87
2019-03-23T20:12:23.402Z,60.43
2019-03-23T20:14:55.600Z,62.90
2019-03-23T20:17:27.936Z,66.90
2019-03-23T20:20:00.402Z,67.27
2019-03-23T20:22:32.923Z,77.80
2019-03-23T20:25:05.506Z,76.17
2019-03-23T20:27:38.828Z,77.93
2019-03-23T20:30:13.445Z,71.73
2019-03-23T20:32:45.842Z,84.10
2019-03-23T20:35:18.142Z,81.97
2019-03-23T20:37:50.182Z,87.20
2019-03-23T20:40:22.152Z,86.03
2019-03-23T20:42:54.243Z,79.17
2019-03-23T20:45:29.661Z,79.50
2019-03-23T20:48:02.329Z,82.13
2019-03-23T20:50:35.393Z,83.07
2019-03-23T20:53:07.472Z,81.70
2019-03-23T20:55:40.095Z,83.43
2019-03-23T20:58:12.090Z,83.47
2019-03-23T21:00:44.481Z,77.13
2019-03-23T21:03:18.050Z,72.00
2019-03-23T21:05:50.303Z,70.73
2019-03-23T21:08:22.547Z,76.27
2019-03-23T21:10:54.687Z,69.80
2019-03-23T21:13:26.788Z,67.03
2019-03-23T21:15:58.919Z,70.90
2019-03-23T21:18:31.879Z,66.10
2019-03-23T21:21:06.793Z,67.03
2019-03-23T21:23:38.960Z,71.57
2019-03-23T21:26:12.037Z,66.43
2019-03-23T21:28:44.232Z,64.93
2019-03-23T21:31:16.454Z,59.37
2019-03-23T21:33:49.459Z,62.20
2019-03-23T21:36:22.780Z,59.50
2019-03-23T21:38:55.790Z,67.67
2019-03-23T21:41:28.435Z,67.60
2019-03-23T21:44:00.804Z,59.70
2019-03-23T21:46:33.404Z,65.03
2019-03-23T21:49:05.674Z,64.80
2019-03-23T21:51:38.552Z,68.43
2019-03-23T21:54:11.468Z,64.50
2019-03-23T21:56:44.553Z,59.40
2019-03-23T21:59:17.860Z,58.43
2019-03-23T22:01:51.345Z,56.07
2019-03-23T22:04:23.522Z,63.13
2019-03-23T22:06:56.164Z,67.57
2019-03-23T22:09:28.559Z,59.23
2019-03-23T22:12:00.698Z,58.20
2019-03-23T22:14:41.298Z,59.73
2019-03-23T22:17:06.706Z,57.40
2019-03-23T22:19:38.856Z,57.37
2019-03-23T22:22:10.864Z,57.97
2019-03-23T22:24:43.369Z,60.40
2019-03-23T22:27:15.235Z,52.60
2019-03-23T22:29:48.218Z,58.53
2019-03-23T22:32:21.968Z,56.03
2019-03-23T22:34:54.271Z,56.80
2019-03-23T22:37:26.645Z,57.57
2019-03-23T22:39:58.427Z,64.20
2019-03-23T22:42:30.138Z,59.03
2019-03-23T22:45:01.911Z,59.40
2019-03-23T22:47:33.833Z,61.77
2019-03-23T22:50:06.984Z,59.50
2019-03-23T22:52:39.862Z,61.40
2019-03-23T22:55:12.045Z,64.53
2019-03-23T22:57:43.661Z,62.73
2019-03-23T23:00:20.925Z,61.07
2019-03-23T23:02:54.083Z,69.93
2019-03-23T23:05:25.817Z,67.87
2019-03-23T23:07:57.571Z,67.20
2019-03-23T23:10:29.344Z,74.70
2019-03-23T23:13:01.251Z,71.37
2019-03-23T23:15:32.851Z,68.93
2019-03-23T23:18:05.807Z,72.57
2019-03-23T23:20:37.606Z,64.93
2019-03-23T23:23:09.366Z,70.63
2019-03-23T23:25:41.479Z,78.20
2019-03-23T23:28:13.432Z,66.97
2019-03-23T23:30:45.078Z,60.90
2019-03-23T23:33:16.772Z,64.97
2019-03-23T23:35:48.455Z,55.47
2019-03-23T23:38:20.127Z,67.53
2019-03-23T23:40:51.815Z,64.40
2019-03-23T23:43:23.411Z,66.80
2019-03-23T23:45:55.028Z,63.80
2019-03-23T23:48:26.860Z,60.90
2019-03-23T23:50:58.716Z,64.63
2019-03-23T23:53:30.365Z,64.27
2019-03-23T23:56:01.953Z,64.33
2019-03-23T23:58:33.567Z,65.07
